Time;durP1;ratioP1;P1;durP2;ratioP2;P2;SDS_P1;SDS_P2;PMS_P1;PMS_P2;Temp;Humidity;BMP_temperature;BMP_pressure;BME280_temperature;BME280_humidity;BME280_pressure;Samples;Min_cycle;Max_cycle;Signal;HPM_P1;HPM_P2
2021/07/30 00:01:08;;;;;;;9.23;2.28;;;;;;;15.67;59.65;100331.50;5026738;28;20103;-82
2021/07/30 00:03:35;;;;;;;6.50;2.40;;;;;;;15.57;59.72;100331.38;5020700;28;20140;-80
2021/07/30 00:06:24;;;;;;;4.78;2.30;;;;;;;15.34;60.35;100337.78;5023768;28;20053;-81
2021/07/30 00:08:51;;;;;;;9.73;2.00;;;;;;;15.57;59.51;100330.53;5006069;28;20500;-80
2021/07/30 00:11:18;;;;;;;10.02;2.40;;;;;;;15.64;59.81;100329.94;5006991;28;20144;-79
2021/07/30 00:13:46;;;;;;;8.63;2.88;;;;;;;15.57;59.92;100334.03;5039476;28;20512;-82
2021/07/30 00:16:13;;;;;;;7.38;2.28;;;;;;;15.38;61.40;100342.69;5047252;28;20049;-80
2021/07/30 00:18:40;;;;;;;5.55;2.13;;;;;;;15.24;61.19;100339.53;5046766;28;20492;-78
2021/07/30 00:21:08;;;;;;;11.18;2.95;;;;;;;15.24;61.28;100334.22;5041917;28;20464;-81
2021/07/30 00:23:35;;;;;;;8.80;2.22;;;;;;;15.07;61.29;100328.47;5020346;28;20076;-83
2021/07/30 00:26:02;;;;;;;3.95;1.95;;;;;;;15.13;61.98;100330.66;5045669;28;20041;-79
2021/07/30 00:28:30;;;;;;;10.35;2.90;;;;;;;14.94;62.74;100322.50;4999501;28;20054;-82
2021/07/30 00:30:57;;;;;;;2.40;1.70;;;;;;;14.90;62.27;100327.25;5002875;28;20053;-79
2021/07/30 00:33:24;;;;;;;6.07;2.53;;;;;;;14.76;62.36;100326.66;5046036;28;20053;-78
2021/07/30 00:35:51;;;;;;;7.97;1.85;;;;;;;14.69;62.67;100318.38;5041266;28;20136;-80
2021/07/30 00:38:19;;;;;;;5.40;2.08;;;;;;;14.76;62.79;100316.91;5044896;28;20087;-80
2021/07/30 00:40:46;;;;;;;8.75;2.72;;;;;;;14.66;62.54;100314.16;5022749;28;20045;-80
2021/07/30 00:43:17;;;;;;;4.95;1.90;;;;;;;14.60;62.86;100319.13;5010560;28;20476;-82
2021/07/30 00:45:45;;;;;;;8.40;3.53;;;;;;;14.52;62.63;100319.72;5027125;28;20077;-80
2021/07/30 00:48:13;;;;;;;7.20;2.00;;;;;;;14.58;63.46;100313.94;5014133;28;20571;-80
2021/07/30 00:50:41;;;;;;;7.20;2.38;;;;;;;14.58;63.42;100308.63;5018672;28;20167;-85
2021/07/30 00:53:08;;;;;;;5.03;2.20;;;;;;;14.54;63.59;100309.84;5048581;28;20057;-84
2021/07/30 00:55:36;;;;;;;5.93;2.15;;;;;;;14.84;62.87;100306.53;5048034;28;20151;-80
2021/07/30 00:58:03;;;;;;;5.57;2.47;;;;;;;14.65;62.94;100312.47;5049675;28;20107;-81
2021/07/30 01:00:30;;;;;;;7.97;2.67;;;;;;;14.46;63.37;100314.06;5014237;28;20049;-82
2021/07/30 01:03:00;;;;;;;10.73;2.33;;;;;;;14.51;64.68;100317.22;5045568;28;20085;-81
2021/07/30 01:05:30;;;;;;;7.10;2.78;;;;;;;14.59;64.56;100307.69;5033473;28;20098;-77
2021/07/30 01:07:58;;;;;;;8.75;1.80;;;;;;;14.75;63.38;100315.22;5014798;28;20124;-81
2021/07/30 01:10:25;;;;;;;10.52;2.50;;;;;;;14.48;63.66;100313.00;5034894;28;20401;-80
2021/07/30 01:12:54;;;;;;;9.20;2.03;;;;;;;14.34;64.00;100313.22;5037078;28;20061;-80
2021/07/30 01:15:22;;;;;;;8.60;2.72;;;;;;;14.42;64.60;100311.66;5031866;28;20495;-82
2021/07/30 01:17:49;;;;;;;7.95;2.88;;;;;;;14.43;65.62;100312.50;5022209;28;20357;-79
2021/07/30 01:20:22;;;;;;;6.07;2.67;;;;;;;14.31;64.88;100313.47;5023614;28;20056;-79
2021/07/30 01:22:59;;;;;;;7.18;2.30;;;;;;;14.23;64.23;100310.56;5022438;28;20102;-81
2021/07/30 01:25:28;;;;;;;9.60;2.50;;;;;;;14.52;63.44;100308.31;5029760;28;20090;-80
2021/07/30 01:27:56;;;;;;;8.52;2.83;;;;;;;14.43;63.47;100299.25;5008506;28;20162;-81
2021/07/30 01:30:24;;;;;;;5.18;2.35;;;;;;;14.27;64.12;100307.56;5026373;28;20065;-82
2021/07/30 01:32:51;;;;;;;9.55;2.30;;;;;;;14.47;63.62;100311.28;5025035;28;20115;-82
2021/07/30 01:35:19;;;;;;;5.90;2.22;;;;;;;14.43;63.23;100302.75;5029626;28;20089;-80
2021/07/30 01:37:46;;;;;;;4.50;1.98;;;;;;;14.38;64.17;100304.06;5013574;28;20049;-79
2021/07/30 01:40:14;;;;;;;3.45;1.95;;;;;;;14.21;64.48;100296.63;5026591;28;20278;-80
2021/07/30 01:42:42;;;;;;;6.97;2.17;;;;;;;14.48;63.93;100298.88;5007842;28;20087;-84
2021/07/30 01:45:10;;;;;;;9.68;2.75;;;;;;;14.59;63.24;100288.28;5030810;28;20078;-79
2021/07/30 01:47:37;;;;;;;11.52;2.20;;;;;;;14.48;64.12;100298.88;5009670;28;20049;-79
2021/07/30 01:50:05;;;;;;;8.70;2.53;;;;;;;14.61;63.80;100289.84;5009544;28;20084;-80
2021/07/30 01:52:33;;;;;;;6.97;2.58;;;;;;;14.75;63.11;100293.19;5035577;28;20103;-78
2021/07/30 01:55:01;;;;;;;11.45;2.40;;;;;;;14.76;63.31;100298.34;5048795;28;20083;-79
2021/07/30 01:57:28;;;;;;;9.30;3.13;;;;;;;14.54;63.75;100290.47;5037308;28;21125;-79
2021/07/30 01:59:55;;;;;;;8.15;2.63;;;;;;;14.46;64.07;100296.38;5050382;28;20053;-78
2021/07/30 02:02:22;;;;;;;13.20;2.35;;;;;;;14.17;64.62;100299.50;5045805;28;20587;-83
2021/07/30 02:04:50;;;;;;;7.03;2.17;;;;;;;14.04;65.83;100300.59;5016579;28;20053;-80
2021/07/30 02:07:18;;;;;;;4.68;1.98;;;;;;;14.32;65.23;100304.53;5029230;28;20076;-81
2021/07/30 02:09:46;;;;;;;6.75;2.35;;;;;;;14.31;65.25;100301.06;5030361;28;20396;-80
2021/07/30 02:12:16;;;;;;;7.05;2.42;;;;;;;14.33;65.93;100307.09;5016249;28;20037;-83
2021/07/30 02:14:43;;;;;;;9.60;3.75;;;;;;;14.41;66.16;100311.78;5015027;28;20049;-79
2021/07/30 02:17:11;;;;;;;12.90;2.20;;;;;;;14.48;65.98;100312.13;5031777;28;20095;-83
2021/07/30 02:19:38;;;;;;;11.43;2.50;;;;;;;14.40;66.02;100308.28;5033241;28;20053;-79
2021/07/30 02:22:05;;;;;;;12.35;2.60;;;;;;;14.27;66.37;100310.22;5043036;28;20083;-81
2021/07/30 02:24:34;;;;;;;10.48;2.38;;;;;;;14.11;65.83;100309.75;5042700;28;20268;-79
2021/07/30 02:27:01;;;;;;;5.40;1.77;;;;;;;14.30;65.43;100307.31;5002617;28;20132;-80
2021/07/30 02:29:28;;;;;;;8.27;2.00;;;;;;;14.40;65.19;100312.72;5027677;28;20152;-81
2021/07/30 02:31:56;;;;;;;6.95;2.55;;;;;;;14.37;65.29;100302.41;5049900;28;20053;-81
2021/07/30 02:34:24;;;;;;;5.70;2.10;;;;;;;14.11;65.66;100307.94;5032014;28;20052;-82
2021/07/30 02:36:51;;;;;;;6.35;2.22;;;;;;;14.09;66.35;100307.22;5014586;28;20068;-82
2021/07/30 02:39:18;;;;;;;7.85;2.17;;;;;;;14.24;65.99;100318.41;5038611;28;20053;-79
2021/07/30 02:41:45;;;;;;;7.70;2.03;;;;;;;14.48;65.64;100314.78;5002125;28;20481;-82
2021/07/30 02:44:13;;;;;;;6.50;2.20;;;;;;;14.47;64.48;100319.22;5022603;28;20050;-82
2021/07/30 02:46:40;;;;;;;11.02;3.30;;;;;;;14.23;65.96;100318.50;5022511;28;20119;-79
2021/07/30 02:49:07;;;;;;;7.72;2.20;;;;;;;14.29;65.61;100326.00;4993788;28;20045;-79
2021/07/30 02:51:34;;;;;;;9.85;2.97;;;;;;;14.19;66.72;100323.25;5003969;28;20091;-79
2021/07/30 02:54:02;;;;;;;4.45;2.22;;;;;;;14.26;66.00;100319.13;4992224;28;20520;-83
2021/07/30 02:56:29;;;;;;;5.25;2.50;;;;;;;14.13;66.36;100321.06;5015662;28;20057;-81
2021/07/30 02:58:56;;;;;;;12.55;2.80;;;;;;;14.09;67.51;100316.97;5029790;28;20073;-79
2021/07/30 03:01:23;;;;;;;7.07;2.30;;;;;;;14.39;66.98;100321.66;5032206;28;20055;-82
2021/07/30 03:03:51;;;;;;;5.50;2.00;;;;;;;14.43;65.56;100315.13;5014431;28;20108;-79
2021/07/30 03:06:18;;;;;;;7.00;2.22;;;;;;;14.22;66.75;100309.72;5044344;28;20073;-83
2021/07/30 03:08:45;;;;;;;6.00;2.78;;;;;;;14.26;65.89;100316.47;5000553;28;20045;-81
2021/07/30 03:11:13;;;;;;;7.03;2.10;;;;;;;14.40;66.35;100320.66;5031251;28;20045;-79
2021/07/30 03:13:40;;;;;;;14.60;2.58;;;;;;;14.26;66.23;100318.28;4997407;28;20085;-80
2021/07/30 03:16:08;;;;;;;6.13;2.33;;;;;;;14.51;66.17;100319.88;5022993;28;20475;-80
2021/07/30 03:18:35;;;;;;;3.95;2.22;;;;;;;14.31;66.58;100313.47;5012194;28;20496;-80
2021/07/30 03:21:02;;;;;;;8.95;2.60;;;;;;;14.54;65.87;100314.31;5003154;28;20057;-80
2021/07/30 03:23:30;;;;;;;6.13;2.15;;;;;;;14.41;65.96;100322.38;5028643;28;20215;-78
2021/07/30 03:25:57;;;;;;;6.88;2.03;;;;;;;14.46;66.16;100320.22;5032449;28;20041;-82
2021/07/30 03:28:24;;;;;;;6.97;2.20;;;;;;;14.64;65.67;100315.25;5047648;28;20073;-79
2021/07/30 03:30:51;;;;;;;6.43;2.83;;;;;;;14.74;65.02;100310.06;5032571;28;20095;-81
2021/07/30 03:33:18;;;;;;;7.22;2.78;;;;;;;14.67;65.42;100310.53;5027401;28;20140;-78
2021/07/30 03:35:46;;;;;;;6.53;2.55;;;;;;;14.63;65.22;100310.91;5046138;28;20136;-80
2021/07/30 03:38:13;;;;;;;8.77;2.75;;;;;;;14.67;65.52;100309.69;5026487;28;20106;-85
2021/07/30 03:40:42;;;;;;;5.47;2.58;;;;;;;14.89;64.94;100309.63;5027693;28;20083;-79
2021/07/30 03:43:09;;;;;;;9.38;3.10;;;;;;;15.06;64.54;100316.22;5018554;28;20367;-79
2021/07/30 03:45:36;;;;;;;4.13;2.30;;;;;;;15.23;63.44;100311.31;5016006;28;20111;-80
2021/07/30 03:48:05;;;;;;;5.20;2.40;;;;;;;15.27;63.59;100316.25;5045848;28;20488;-79
2021/07/30 03:50:32;;;;;;;5.45;2.38;;;;;;;15.44;62.89;100312.16;5031680;28;20103;-77
2021/07/30 03:53:00;;;;;;;3.58;1.58;;;;;;;15.57;62.82;100317.28;5028559;28;20060;-78
2021/07/30 03:55:30;;;;;;;5.22;2.25;;;;;;;15.45;63.25;100312.06;5015886;28;20057;-79
2021/07/30 03:57:58;;;;;;;9.90;2.53;;;;;;;15.35;63.05;100311.13;5018561;28;20077;-80
2021/07/30 04:00:25;;;;;;;8.05;2.88;;;;;;;15.49;63.08;100312.63;5024870;28;20136;-80
2021/07/30 04:02:52;;;;;;;7.72;2.80;;;;;;;15.49;63.54;100307.34;5030698;28;20136;-83
2021/07/30 04:05:20;;;;;;;9.15;2.53;;;;;;;15.52;63.10;100312.34;5043079;28;20058;-81
2021/07/30 04:07:48;;;;;;;10.40;2.38;;;;;;;15.54;62.51;100314.91;5026496;28;20109;-80
2021/07/30 04:10:15;;;;;;;7.18;2.60;;;;;;;15.46;63.17;100310.22;5049036;28;20088;-80
2021/07/30 04:12:42;;;;;;;11.13;3.45;;;;;;;15.32;64.56;100310.56;5010662;28;20131;-81
2021/07/30 04:15:09;;;;;;;6.55;2.13;;;;;;;15.16;64.76;100310.97;5033365;28;20044;-82
2021/07/30 04:17:36;;;;;;;5.72;3.13;;;;;;;15.28;65.34;100309.97;5012158;28;20131;-80
2021/07/30 04:20:04;;;;;;;8.25;2.47;;;;;;;15.35;64.87;100313.78;5052888;28;20045;-79
2021/07/30 04:22:31;;;;;;;7.78;2.70;;;;;;;15.15;65.53;100312.78;5002601;28;20155;-80
2021/07/30 04:24:59;;;;;;;7.50;3.00;;;;;;;15.19;65.15;100310.72;5028098;28;20192;-79
2021/07/30 04:27:26;;;;;;;17.50;3.10;;;;;;;15.38;64.34;100308.22;5006554;28;20107;-79
2021/07/30 04:29:54;;;;;;;8.23;2.70;;;;;;;15.32;64.83;100306.09;5028779;28;20127;-78
2021/07/30 04:32:21;;;;;;;4.47;2.40;;;;;;;15.61;64.48;100311.56;5015016;28;20059;-80
2021/07/30 04:34:48;;;;;;;8.77;2.78;;;;;;;15.97;63.42;100312.09;5017151;28;20527;-80
2021/07/30 04:37:15;;;;;;;9.73;2.58;;;;;;;16.83;59.55;100310.69;5009350;28;20084;-79
2021/07/30 04:39:43;;;;;;;7.78;2.90;;;;;;;17.62;57.60;100305.19;5034131;28;20044;-79
2021/07/30 04:42:10;;;;;;;4.88;2.13;;;;;;;18.46;53.97;100301.66;5023430;28;20124;-79
2021/07/30 04:44:37;;;;;;;8.90;2.22;;;;;;;18.65;53.26;100308.72;5045556;28;20055;-81
2021/07/30 04:47:05;;;;;;;8.75;3.25;;;;;;;19.37;51.65;100306.94;5040115;28;20465;-79
2021/07/30 04:49:32;;;;;;;5.68;2.03;;;;;;;20.40;48.60;100316.75;5025271;28;20063;-79
2021/07/30 04:52:00;;;;;;;4.28;2.13;;;;;;;20.83;47.58;100320.22;5026240;28;20092;-79
2021/07/30 04:54:29;;;;;;;6.28;2.40;;;;;;;21.68;44.82;100323.47;5031032;28;20081;-80
2021/07/30 04:56:57;;;;;;;6.38;2.70;;;;;;;21.60;44.63;100314.59;5019017;28;20091;-81
2021/07/30 04:59:24;;;;;;;7.03;2.10;;;;;;;22.37;43.03;100317.59;5030018;28;20512;-78
2021/07/30 05:01:51;;;;;;;8.18;2.90;;;;;;;22.73;41.84;100324.13;5016452;28;20558;-80
2021/07/30 05:04:19;;;;;;;6.90;2.55;;;;;;;23.34;40.62;100316.19;5031251;28;20471;-81
2021/07/30 05:06:47;;;;;;;5.93;2.28;;;;;;;23.30;40.38;100317.56;5001701;28;20044;-78
2021/07/30 05:09:14;;;;;;;8.27;2.65;;;;;;;23.40;40.26;100322.69;5048846;28;20046;-77
2021/07/30 05:11:42;;;;;;;9.77;2.75;;;;;;;24.05;38.83;100319.41;5021791;28;20113;-79
2021/07/30 05:14:09;;;;;;;7.13;2.67;;;;;;;24.83;37.20;100315.22;5054082;28;20045;-78
2021/07/30 05:16:37;;;;;;;13.82;2.35;;;;;;;25.19;36.60;100308.97;5018760;28;20049;-79
2021/07/30 05:19:04;;;;;;;5.78;2.50;;;;;;;25.37;36.17;100303.94;5018359;28;20136;-79
2021/07/30 05:21:31;;;;;;;13.93;2.33;;;;;;;25.92;35.64;100304.16;5053863;28;20171;-82
2021/07/30 05:23:58;;;;;;;10.82;2.75;;;;;;;25.85;35.07;100305.97;5056267;28;20535;-78
2021/07/30 05:26:26;;;;;;;7.22;2.67;;;;;;;26.22;34.16;100310.16;5017772;28;20041;-79
2021/07/30 05:28:53;;;;;;;6.45;2.65;;;;;;;26.40;34.08;100298.81;5029830;28;20049;-78
2021/07/30 05:31:22;;;;;;;12.32;3.10;;;;;;;26.93;33.43;100305.22;5022189;28;20042;-84
2021/07/30 05:33:50;;;;;;;7.45;2.40;;;;;;;27.04;33.02;100305.66;5031515;28;20064;-79
2021/07/30 05:36:19;;;;;;;9.70;2.78;;;;;;;27.34;32.77;100308.84;5026783;28;20076;-79
2021/07/30 05:38:47;;;;;;;7.85;2.95;;;;;;;28.31;31.03;100308.06;5029031;28;20041;-78
2021/07/30 05:41:15;;;;;;;8.27;2.38;;;;;;;28.56;30.55;100313.63;5015219;28;20057;-80
2021/07/30 05:44:08;;;;;;;7.05;2.92;;;;;;;29.31;29.53;100304.81;5019366;28;20139;-78
2021/07/30 05:46:38;;;;;;;8.65;2.30;;;;;;;29.22;29.40;100305.09;5036351;28;20073;-80
2021/07/30 05:49:06;;;;;;;5.72;2.72;;;;;;;29.43;29.19;100306.59;5050010;28;20102;-79
2021/07/30 05:51:34;;;;;;;6.75;2.28;;;;;;;29.21;29.83;100302.59;5031968;28;20056;-81
2021/07/30 05:54:01;;;;;;;6.05;2.60;;;;;;;29.31;29.74;100296.69;5033928;28;20045;-78
2021/07/30 05:56:29;;;;;;;6.38;2.22;;;;;;;29.43;29.34;100308.47;5007624;28;20148;-81
2021/07/30 05:58:59;;;;;;;4.70;2.22;;;;;;;29.81;28.72;100307.53;5049455;28;20075;-78
2021/07/30 06:01:27;;;;;;;10.65;2.70;;;;;;;29.68;28.85;100305.78;5028152;28;20141;-81
2021/07/30 06:03:54;;;;;;;9.60;3.38;;;;;;;30.09;28.53;100302.44;5032152;28;20128;-80
2021/07/30 06:06:22;;;;;;;9.68;2.70;;;;;;;30.90;27.50;100305.84;5051323;28;20123;-82
2021/07/30 06:08:50;;;;;;;4.85;2.05;;;;;;;31.39;26.77;100299.22;5019776;28;20053;-84
2021/07/30 06:11:20;;;;;;;8.13;2.60;;;;;;;31.63;26.14;100302.78;5042760;28;20374;-78
2021/07/30 06:13:47;;;;;;;5.28;2.30;;;;;;;32.12;25.59;100300.63;5024871;28;20193;-77
2021/07/30 06:16:14;;;;;;;12.13;2.90;;;;;;;32.35;24.90;100302.47;5016666;28;20577;-82
2021/07/30 06:19:01;;;;;;;6.28;2.63;;;;;;;31.82;25.76;100297.22;5011226;28;20456;-80
2021/07/30 06:21:32;;;;;;;7.13;2.53;;;;;;;32.58;24.66;100301.56;5031593;28;20064;-81
2021/07/30 06:24:00;;;;;;;10.32;3.15;;;;;;;32.12;25.68;100287.00;5049194;28;20111;-79
2021/07/30 06:26:27;;;;;;;6.75;2.42;;;;;;;32.19;25.92;100289.59;5027848;28;20218;-87
2021/07/30 06:28:54;;;;;;;9.15;2.80;;;;;;;32.69;24.76;100291.69;5003368;28;20033;-79
2021/07/30 06:31:22;;;;;;;10.77;3.15;;;;;;;32.36;25.37;100290.50;5032341;28;20389;-83
2021/07/30 06:33:49;;;;;;;6.07;2.63;;;;;;;32.96;24.24;100291.94;5031495;28;20056;-79
2021/07/30 06:36:18;;;;;;;6.82;2.85;;;;;;;32.20;25.44;100288.53;5021944;28;20390;-80
2021/07/30 06:38:46;;;;;;;12.52;2.80;;;;;;;32.36;25.41;100297.84;5021235;28;20044;-79
2021/07/30 06:41:15;;;;;;;5.50;2.97;;;;;;;33.30;24.34;100300.97;5028673;28;20193;-80
2021/07/30 06:43:44;;;;;;;9.13;3.03;;;;;;;32.48;25.28;100291.31;5010334;28;20041;-82
2021/07/30 06:46:15;;;;;;;9.35;3.65;;;;;;;32.71;25.39;100297.75;5004685;28;20381;-77
2021/07/30 06:48:46;;;;;;;8.00;2.63;;;;;;;32.74;25.04;100294.53;5013484;28;20045;-81
2021/07/30 06:51:13;;;;;;;6.40;2.85;;;;;;;31.98;25.99;100291.06;5031904;28;20092;-78
2021/07/30 06:53:40;;;;;;;16.70;4.47;;;;;;;32.46;25.17;100300.78;5027380;28;20053;-80
2021/07/30 06:56:12;;;;;;;7.13;2.80;;;;;;;32.77;25.16;100289.38;5032088;28;20973;-79
2021/07/30 06:58:42;;;;;;;7.47;2.67;;;;;;;32.90;24.90;100290.16;5015963;28;20123;-79
2021/07/30 07:01:10;;;;;;;7.05;3.53;;;;;;;33.61;23.92;100290.56;5033020;28;20049;-83
2021/07/30 07:03:39;;;;;;;6.00;2.70;;;;;;;34.06;24.02;100284.13;5027496;28;20120;-81
2021/07/30 07:06:12;;;;;;;8.77;3.28;;;;;;;34.19;23.81;100287.28;5013255;28;20053;-78
2021/07/30 07:08:40;;;;;;;11.35;3.47;;;;;;;34.66;22.88;100285.94;5012794;28;20460;-79
2021/07/30 07:11:07;;;;;;;9.27;3.10;;;;;;;35.07;22.50;100280.88;5026410;28;20041;-82
2021/07/30 07:13:35;;;;;;;20.23;4.25;;;;;;;34.82;22.33;100276.81;5020111;28;20084;-78
2021/07/30 07:16:02;;;;;;;14.45;3.50;;;;;;;35.01;22.78;100277.28;5040830;28;20464;-78
2021/07/30 07:18:33;;;;;;;12.65;3.78;;;;;;;33.76;23.30;100275.22;5020133;28;20025;-79
2021/07/30 07:21:01;;;;;;;7.70;2.95;;;;;;;33.80;23.39;100281.00;5047238;28;20041;-77
2021/07/30 07:23:28;;;;;;;12.50;3.25;;;;;;;33.23;24.05;100276.59;5042968;28;20060;-79
2021/07/30 07:25:58;;;;;;;31.02;9.30;;;;;;;34.02;23.07;100283.78;5027763;28;20053;-79
2021/07/30 07:28:26;;;;;;;7.93;3.15;;;;;;;34.79;22.60;100273.75;5027350;28;20555;-79
2021/07/30 07:30:54;;;;;;;9.15;3.15;;;;;;;34.80;22.58;100276.22;5033747;28;20504;-78
2021/07/30 07:33:21;;;;;;;9.10;2.83;;;;;;;34.34;23.27;100272.97;5030977;28;20124;-78
2021/07/30 07:35:53;;;;;;;11.75;3.17;;;;;;;33.21;24.13;100283.38;5013747;28;20074;-82
2021/07/30 07:38:21;;;;;;;25.80;4.35;;;;;;;33.45;23.71;100282.13;5025154;28;20496;-79
2021/07/30 07:40:48;;;;;;;8.70;3.28;;;;;;;33.24;23.60;100282.88;5017055;28;20067;-78
2021/07/30 07:43:15;;;;;;;9.02;2.83;;;;;;;34.05;23.33;100280.56;5024496;28;20442;-83
2021/07/30 07:45:42;;;;;;;8.95;3.03;;;;;;;34.16;22.83;100273.31;5032600;28;20496;-78
2021/07/30 07:48:09;;;;;;;9.45;3.25;;;;;;;33.73;23.45;100277.66;5029181;28;20053;-78
2021/07/30 07:50:36;;;;;;;9.18;3.28;;;;;;;33.65;23.14;100273.44;5045273;28;20069;-79
2021/07/30 07:53:17;;;;;;;11.38;4.32;;;;;;;33.02;23.55;100282.78;5025926;28;20052;-79
2021/07/30 07:55:45;;;;;;;11.10;3.75;;;;;;;33.26;23.83;100278.00;5035005;28;20528;-79
2021/07/30 07:58:13;;;;;;;15.32;4.13;;;;;;;33.54;23.30;100274.34;5014913;28;20540;-76
2021/07/30 08:00:40;;;;;;;8.90;3.50;;;;;;;33.14;23.58;100280.78;5036644;28;20141;-80
2021/07/30 08:03:08;;;;;;;8.13;3.17;;;;;;;34.14;22.17;100265.38;5029436;28;20187;-79
2021/07/30 08:05:37;;;;;;;14.15;3.85;;;;;;;33.49;22.82;100253.28;5031982;28;20391;-82
2021/07/30 08:08:05;;;;;;;10.88;3.20;;;;;;;33.62;22.10;100259.47;5030334;28;20049;-78
2021/07/30 08:10:33;;;;;;;7.10;3.25;;;;;;;33.49;22.56;100263.38;5051121;28;20132;-80
2021/07/30 08:13:00;;;;;;;10.52;2.78;;;;;;;31.79;24.70;100260.38;5023694;28;20166;-79
2021/07/30 08:15:27;;;;;;;11.18;3.40;;;;;;;33.10;22.99;100266.00;5054784;28;20103;-78
2021/07/30 08:17:54;;;;;;;10.75;3.47;;;;;;;32.33;24.37;100262.91;5052412;28;20053;-82
2021/07/30 08:20:22;;;;;;;11.48;3.28;;;;;;;33.21;22.98;100251.47;5035665;28;20106;-78
2021/07/30 08:22:49;;;;;;;10.35;3.28;;;;;;;33.90;22.05;100251.09;5044299;28;20052;-79
2021/07/30 08:25:16;;;;;;;12.45;3.42;;;;;;;33.89;22.26;100251.38;5020288;28;20144;-78
2021/07/30 08:27:43;;;;;;;9.70;3.05;;;;;;;34.33;21.79;100246.75;5032394;28;20040;-78
2021/07/30 08:30:14;;;;;;;11.88;3.33;;;;;;;33.00;22.92;100260.38;5020808;28;20053;-79
2021/07/30 08:32:41;;;;;;;10.30;2.80;;;;;;;32.59;24.17;100259.63;5044778;28;20061;-77
2021/07/30 08:35:11;;;;;;;9.48;3.13;;;;;;;31.95;24.33;100254.25;5037103;28;20080;-81
2021/07/30 08:37:38;;;;;;;10.43;3.40;;;;;;;32.99;23.23;100253.28;5034637;28;20076;-80
2021/07/30 08:40:06;;;;;;;10.25;2.65;;;;;;;31.37;25.25;100263.25;5022963;28;20049;-80
2021/07/30 08:42:37;;;;;;;7.93;2.88;;;;;;;29.58;27.49;100253.91;5023374;28;20053;-80
2021/07/30 08:45:05;;;;;;;13.60;3.20;;;;;;;28.72;28.90;100269.75;5036597;28;20107;-77
2021/07/30 08:47:33;;;;;;;9.80;2.75;;;;;;;27.32;31.38;100267.66;5052173;28;20052;-77
2021/07/30 08:50:00;;;;;;;8.88;3.10;;;;;;;26.98;32.08;100251.41;5020676;28;20057;-80
2021/07/30 08:52:32;;;;;;;7.88;2.92;;;;;;;26.60;32.58;100248.44;5033164;28;20116;-78
2021/07/30 08:54:59;;;;;;;13.65;3.33;;;;;;;26.66;33.20;100253.03;5020856;28;20105;-78
2021/07/30 08:57:27;;;;;;;11.43;3.40;;;;;;;26.86;32.94;100242.25;5052486;28;20444;-81
2021/07/30 08:59:54;;;;;;;12.82;3.28;;;;;;;26.83;32.58;100241.81;5015506;28;20088;-80
2021/07/30 09:02:21;;;;;;;6.90;2.75;;;;;;;26.43;33.19;100252.50;5032513;28;20164;-79
2021/07/30 09:04:48;;;;;;;11.52;3.47;;;;;;;26.25;33.58;100244.97;5013210;28;20128;-80
2021/07/30 09:07:16;;;;;;;11.05;2.85;;;;;;;25.79;33.84;100248.28;5012037;28;20107;-78
2021/07/30 09:09:53;;;;;;;8.05;3.10;;;;;;;25.60;33.85;100244.41;5014224;28;20057;-80
2021/07/30 09:12:21;;;;;;;8.13;3.28;;;;;;;26.05;33.32;100241.38;5008123;28;20050;-78
2021/07/30 09:14:49;;;;;;;9.05;3.13;;;;;;;26.06;33.12;100249.25;5029127;28;20103;-79
2021/07/30 09:17:16;;;;;;;9.13;2.80;;;;;;;25.79;34.13;100244.75;5031253;28;20179;-79
2021/07/30 09:20:01;;;;;;;9.93;3.05;;;;;;;25.12;33.90;100241.56;5054655;28;20102;-78
2021/07/30 09:22:28;;;;;;;9.05;3.22;;;;;;;24.90;34.97;100246.13;5032726;28;20166;-79
2021/07/30 09:24:59;;;;;;;7.95;2.80;;;;;;;25.01;34.94;100244.75;5018477;28;20048;-80
2021/07/30 09:27:33;;;;;;;12.82;3.17;;;;;;;25.16;34.62;100247.38;5025513;28;20060;-80
2021/07/30 09:30:13;;;;;;;10.68;2.70;;;;;;;24.62;35.90;100246.03;5036804;28;20057;-78
2021/07/30 09:32:42;;;;;;;24.58;3.63;;;;;;;23.86;36.49;100241.97;5042676;28;20044;-81
2021/07/30 09:35:09;;;;;;;8.88;2.72;;;;;;;24.02;35.96;100239.09;5052612;28;20064;-81
2021/07/30 09:37:36;;;;;;;19.85;4.00;;;;;;;24.11;35.93;100240.66;5036306;28;20587;-82
2021/07/30 09:40:18;;;;;;;12.38;3.25;;;;;;;23.64;36.41;100236.50;5040428;28;20041;-78
2021/07/30 09:42:45;;;;;;;20.77;3.42;;;;;;;23.25;37.23;100240.22;5010519;28;20133;-78
2021/07/30 09:45:13;;;;;;;15.65;3.70;;;;;;;23.63;37.50;100236.66;5054133;28;20106;-80
2021/07/30 09:47:47;;;;;;;13.77;3.63;;;;;;;23.54;37.20;100232.38;5043741;28;20619;-80
2021/07/30 09:50:15;;;;;;;14.93;3.67;;;;;;;23.94;37.19;100237.31;5030421;28;20508;-81
2021/07/30 09:52:42;;;;;;;11.45;3.80;;;;;;;24.78;35.51;100236.06;5020210;28;21029;-78
2021/07/30 09:55:10;;;;;;;10.65;3.10;;;;;;;24.54;36.16;100230.00;5013954;28;20124;-82
2021/07/30 09:57:42;;;;;;;12.13;3.55;;;;;;;24.58;36.28;100225.06;5023144;28;20173;-78
2021/07/30 10:00:10;;;;;;;7.68;2.50;;;;;;;24.65;36.55;100234.88;5012521;28;20137;-78
2021/07/30 10:02:40;;;;;;;18.27;4.00;;;;;;;24.57;35.67;100220.72;5012229;28;20443;-79
2021/07/30 10:05:12;;;;;;;9.60;2.80;;;;;;;24.58;36.15;100225.91;5030038;28;20080;-85
2021/07/30 10:07:41;;;;;;;13.25;3.20;;;;;;;24.46;36.07;100225.59;5018583;28;20091;-79
2021/07/30 10:10:16;;;;;;;9.77;3.05;;;;;;;24.86;35.63;100222.47;5025517;28;20545;-78
2021/07/30 10:12:48;;;;;;;9.48;3.25;;;;;;;25.02;36.24;100216.78;5021772;28;20098;-78
2021/07/30 10:15:16;;;;;;;13.68;2.92;;;;;;;25.84;34.06;100205.38;5048329;28;20052;-79
2021/07/30 10:17:48;;;;;;;7.90;2.63;;;;;;;25.78;34.23;100208.03;5029494;28;20045;-81
2021/07/30 10:20:20;;;;;;;9.68;2.90;;;;;;;25.18;35.20;100202.25;5009340;28;20080;-78
2021/07/30 10:23:00;;;;;;;12.45;3.17;;;;;;;25.24;34.79;100191.50;5031020;28;20053;-80
2021/07/30 10:25:30;;;;;;;5.47;2.72;;;;;;;25.73;34.43;100198.66;5034547;28;20092;-80
2021/07/30 10:28:03;;;;;;;7.80;2.97;;;;;;;25.41;35.56;100202.00;5028550;28;20096;-80
2021/07/30 10:31:01;;;;;;;10.02;3.30;;;;;;;25.45;35.37;100196.00;5024211;28;20140;-79
2021/07/30 10:33:36;;;;;;;6.53;2.50;;;;;;;25.40;34.59;100189.56;5026305;28;20041;-81
2021/07/30 10:36:15;;;;;;;19.08;3.30;;;;;;;25.74;34.09;100186.00;5030521;28;20099;-78
2021/07/30 10:38:42;;;;;;;14.15;2.30;;;;;;;26.08;32.81;100181.63;5004851;28;20049;-84
2021/07/30 10:41:09;;;;;;;6.95;2.75;;;;;;;26.17;33.52;100169.63;5031657;28;20262;-78
2021/07/30 10:43:48;;;;;;;9.27;3.10;;;;;;;26.33;33.28;100180.03;5043530;28;20465;-79
2021/07/30 10:46:18;;;;;;;15.25;2.88;;;;;;;26.65;32.60;100164.94;5008917;28;20099;-78
2021/07/30 10:48:50;;;;;;;13.82;2.70;;;;;;;25.42;33.70;100166.75;5041637;28;20052;-79
2021/07/30 10:51:18;;;;;;;16.98;3.22;;;;;;;25.06;34.24;100166.06;5026221;28;20052;-82
2021/07/30 10:53:58;;;;;;;8.60;2.92;;;;;;;25.10;34.45;100168.19;5023004;28;20147;-80
2021/07/30 10:56:28;;;;;;;6.57;2.88;;;;;;;25.23;34.19;100162.06;5036333;28;20140;-80
2021/07/30 10:58:58;;;;;;;17.42;3.13;;;;;;;24.53;34.55;100165.59;5024692;28;20045;-81
2021/07/30 11:01:28;;;;;;;7.30;2.63;;;;;;;24.83;34.46;100160.91;5031367;28;20061;-80
2021/07/30 11:03:58;;;;;;;26.48;3.35;;;;;;;24.75;34.85;100154.63;5013613;28;20068;-78
2021/07/30 11:06:29;;;;;;;11.80;2.78;;;;;;;24.54;35.50;100154.63;5045233;28;20034;-79
2021/07/30 11:09:05;;;;;;;9.48;2.85;;;;;;;24.54;35.51;100157.31;5007844;28;20048;-82
2021/07/30 11:11:41;;;;;;;8.23;2.33;;;;;;;24.62;35.24;100154.50;5013578;28;20139;-80
2021/07/30 11:14:32;;;;;;;8.35;2.40;;;;;;;24.69;34.76;100159.97;5031663;28;20067;-83
2021/07/30 11:17:05;;;;;;;17.83;2.50;;;;;;;24.39;35.15;100162.78;5018929;28;20049;-78
2021/07/30 11:19:35;;;;;;;5.97;2.47;;;;;;;24.69;35.52;100149.19;5014545;28;20414;-78
2021/07/30 11:22:05;;;;;;;14.20;3.25;;;;;;;25.00;35.01;100149.66;5015479;28;20136;-79
2021/07/30 11:24:40;;;;;;;11.70;2.95;;;;;;;25.21;34.67;100153.34;5017095;28;20519;-81
2021/07/30 11:27:09;;;;;;;8.93;2.13;;;;;;;24.93;34.58;100143.38;4997115;28;20449;-82
2021/07/30 11:29:36;;;;;;;11.13;2.85;;;;;;;24.93;35.57;100142.56;5027753;28;20037;-80